createdAt,value
2023-05-23T00:01:50.844Z,6.03
2023-05-23T00:06:54.989Z,5.28
2023-05-23T00:11:58.022Z,11.02
2023-05-23T00:17:01.652Z,8.70
2023-05-23T00:22:06.108Z,9.77
2023-05-23T00:27:08.811Z,7.10
2023-05-23T00:32:12.260Z,8.35
2023-05-23T00:37:16.459Z,7.60
2023-05-23T00:42:19.189Z,8.88
2023-05-23T00:47:21.935Z,18.58
2023-05-23T00:52:26.276Z,16.98
2023-05-23T00:57:29.334Z,11.45
2023-05-23T01:02:36.592Z,15.55
2023-05-23T01:07:40.804Z,10.40
2023-05-23T01:12:55.261Z,13.07
2023-05-23T01:18:03.319Z,17.85
2023-05-23T01:23:21.512Z,12.75
2023-05-23T01:28:30.437Z,15.93
2023-05-23T01:33:33.705Z,11.82
2023-05-23T01:38:36.414Z,13.38
2023-05-23T01:43:40.543Z,12.23
2023-05-23T01:48:44.348Z,11.88
2023-05-23T01:53:47.146Z,10.57
2023-05-23T01:58:51.210Z,10.25
2023-05-23T02:03:54.378Z,12.20
2023-05-23T02:08:57.061Z,16.83
2023-05-23T02:14:02.441Z,9.73
2023-05-23T02:19:05.775Z,9.15
2023-05-23T02:24:08.501Z,9.60
2023-05-23T02:29:12.552Z,10.15
2023-05-23T02:34:15.317Z,8.25
2023-05-23T02:39:18.078Z,10.25
2023-05-23T02:44:22.079Z,8.20
2023-05-23T02:49:24.776Z,7.13
2023-05-23T02:54:27.466Z,8.65
2023-05-23T02:59:31.462Z,10.45
2023-05-23T03:04:34.281Z,10.25
2023-05-23T03:09:37.084Z,9.73
2023-05-23T03:14:41.420Z,9.57
2023-05-23T03:19:44.228Z,10.13
2023-05-23T03:24:47.077Z,7.10
2023-05-23T03:29:51.272Z,9.88
2023-05-23T03:34:54.203Z,11.18
2023-05-23T03:39:57.006Z,8.38
2023-05-23T03:45:01.242Z,8.70
2023-05-23T03:50:04.267Z,9.93
2023-05-23T03:55:09.509Z,8.80
2023-05-23T04:00:14.833Z,10.48
2023-05-23T04:05:17.802Z,9.65
2023-05-23T04:10:20.758Z,8.30
2023-05-23T04:15:25.029Z,10.18
2023-05-23T04:20:27.888Z,8.60
2023-05-23T04:25:31.263Z,11.30
2023-05-23T04:30:35.313Z,8.13
2023-05-23T04:35:39.008Z,7.93
2023-05-23T04:40:42.100Z,11.73
2023-05-23T04:45:46.279Z,11.13
2023-05-23T04:50:51.176Z,10.30
2023-05-23T04:55:53.873Z,13.55
2023-05-23T05:00:57.908Z,8.30
2023-05-23T05:06:01.859Z,8.93
2023-05-23T05:11:04.716Z,10.80
2023-05-23T05:16:08.984Z,9.20
2023-05-23T05:21:11.675Z,10.23
2023-05-23T05:26:14.478Z,9.63
2023-05-23T05:31:19.007Z,7.35
2023-05-23T05:36:22.432Z,9.85
2023-05-23T05:41:25.296Z,8.25
2023-05-23T05:46:29.602Z,14.25
2023-05-23T05:51:32.350Z,11.90
2023-05-23T05:56:35.200Z,12.98
2023-05-23T06:01:42.201Z,11.57
2023-05-23T06:06:45.143Z,10.20
2023-05-23T06:11:47.878Z,10.80
2023-05-23T06:16:51.874Z,11.40
2023-05-23T06:21:54.711Z,15.70
2023-05-23T06:26:57.407Z,14.45
2023-05-23T06:32:01.537Z,14.38
2023-05-23T06:37:04.409Z,15.30
2023-05-23T06:42:07.827Z,18.63
2023-05-23T06:47:15.168Z,19.50
2023-05-23T06:52:17.848Z,14.07
2023-05-23T06:57:20.688Z,14.55
2023-05-23T07:02:24.770Z,15.73
2023-05-23T07:07:27.601Z,15.32
2023-05-23T07:12:31.834Z,17.33
2023-05-23T07:17:37.530Z,13.90
2023-05-23T07:22:40.257Z,11.63
2023-05-23T07:27:42.975Z,16.40
2023-05-23T07:32:48.078Z,12.63
2023-05-23T07:37:50.863Z,10.50
2023-05-23T07:42:54.224Z,11.20
2023-05-23T07:48:01.616Z,11.23
2023-05-23T07:53:04.457Z,10.93
2023-05-23T07:58:07.210Z,13.85
2023-05-23T08:03:11.811Z,12.52
2023-05-23T08:08:14.617Z,13.55
2023-05-23T08:13:18.512Z,11.15
2023-05-23T08:18:22.612Z,11.93
2023-05-23T08:23:25.608Z,13.38
2023-05-23T08:28:28.790Z,9.02
2023-05-23T08:33:32.808Z,13.20
2023-05-23T08:38:35.549Z,11.25
2023-05-23T08:43:39.375Z,12.68
2023-05-23T08:48:44.629Z,12.63
2023-05-23T08:53:50.027Z,12.38
2023-05-23T08:58:55.182Z,11.75
2023-05-23T09:04:04.867Z,11.82
2023-05-23T09:09:07.578Z,12.10
2023-05-23T09:14:10.280Z,12.80
2023-05-23T09:19:15.178Z,10.32
2023-05-23T09:24:17.930Z,14.63
2023-05-23T09:29:21.493Z,18.83
2023-05-23T09:34:25.581Z,17.33
2023-05-23T09:39:28.331Z,20.17
2023-05-23T09:44:31.048Z,22.35
2023-05-23T09:49:35.050Z,26.52
2023-05-23T09:54:38.014Z,31.35
2023-05-23T09:59:42.256Z,33.05
2023-05-23T10:04:46.725Z,32.50
2023-05-23T10:09:56.821Z,34.17
2023-05-23T10:15:04.576Z,36.85
2023-05-23T10:20:12.549Z,29.67
2023-05-23T10:25:16.367Z,24.13
2023-05-23T10:30:19.347Z,16.40
2023-05-23T10:35:30.438Z,17.40
2023-05-23T10:40:44.449Z,11.95
2023-05-23T10:45:50.565Z,8.38
2023-05-23T10:51:09.619Z,10.15
2023-05-23T10:56:21.802Z,12.93
2023-05-23T11:01:25.270Z,10.32
2023-05-23T11:06:35.229Z,12.43
2023-05-23T11:12:05.093Z,10.07
2023-05-23T11:17:17.659Z,9.07
2023-05-23T11:22:22.015Z,13.38
2023-05-23T11:27:28.592Z,11.15
2023-05-23T11:32:32.633Z,13.13
2023-05-23T11:37:38.793Z,13.18
2023-05-23T11:42:43.044Z,11.20
2023-05-23T11:47:46.206Z,9.65
2023-05-23T11:52:52.345Z,8.60
2023-05-23T11:57:57.776Z,8.00
2023-05-23T12:03:09.105Z,9.57
2023-05-23T12:08:15.447Z,11.43
2023-05-23T12:13:18.462Z,9.20
2023-05-23T12:18:21.294Z,10.45
2023-05-23T12:23:26.248Z,11.38
2023-05-23T12:28:37.126Z,6.88
2023-05-23T12:33:40.586Z,8.88
2023-05-23T12:38:46.365Z,8.10
2023-05-23T12:43:52.963Z,7.68
2023-05-23T12:48:56.272Z,9.27
2023-05-23T12:54:00.640Z,7.85
2023-05-23T12:59:04.526Z,9.00
2023-05-23T13:04:07.271Z,9.88
2023-05-23T13:09:11.479Z,7.20
2023-05-23T13:14:14.673Z,5.20
2023-05-23T13:19:17.629Z,9.43
2023-05-23T13:24:21.916Z,6.45
2023-05-23T13:29:24.732Z,5.55
2023-05-23T13:34:28.647Z,5.72
2023-05-23T13:39:32.879Z,5.72
2023-05-23T13:44:35.702Z,8.15
2023-05-23T13:49:38.577Z,9.88
2023-05-23T13:54:42.631Z,10.35
2023-05-23T13:59:45.426Z,6.82
2023-05-23T14:04:49.129Z,8.73
2023-05-23T14:09:53.141Z,9.63
2023-05-23T14:14:55.959Z,11.00
2023-05-23T14:19:58.874Z,6.32
2023-05-23T14:25:03.070Z,5.82
2023-05-23T14:30:06.868Z,7.07
2023-05-23T14:35:11.176Z,7.15
2023-05-23T14:40:16.337Z,5.55
2023-05-23T14:45:20.081Z,3.45
2023-05-23T14:50:22.841Z,4.25
2023-05-23T14:55:26.957Z,5.03
2023-05-23T15:00:29.753Z,6.15
2023-05-23T15:05:32.645Z,4.90
2023-05-23T15:10:37.364Z,4.97
2023-05-23T15:15:41.122Z,5.28
2023-05-23T15:20:44.062Z,4.82
2023-05-23T15:25:50.177Z,6.38
2023-05-23T15:30:53.673Z,6.05
2023-05-23T15:35:58.815Z,5.78
2023-05-23T15:41:03.257Z,4.15
2023-05-23T15:46:06.186Z,4.45
2023-05-23T15:51:09.003Z,5.80
2023-05-23T15:56:13.035Z,7.18
2023-05-23T16:01:15.886Z,3.80
2023-05-23T16:06:18.668Z,5.03
2023-05-23T16:11:24.030Z,4.63
2023-05-23T16:16:26.858Z,2.85
2023-05-23T16:21:29.702Z,3.67
2023-05-23T16:26:33.807Z,4.47
2023-05-23T16:31:36.566Z,7.78
2023-05-23T16:36:39.307Z,5.53
2023-05-23T16:41:43.367Z,5.15
2023-05-23T16:46:46.158Z,8.05
2023-05-23T16:51:48.995Z,7.63
2023-05-23T16:56:53.319Z,7.53
2023-05-23T17:01:56.428Z,6.32
2023-05-23T17:06:59.234Z,6.28
2023-05-23T17:12:51.623Z,5.63
2023-05-23T17:18:09.707Z,4.07
2023-05-23T17:23:19.238Z,5.40
2023-05-23T17:28:23.329Z,4.57
2023-05-23T17:33:26.029Z,3.90
2023-05-23T17:38:29.069Z,5.00
2023-05-23T17:43:33.071Z,5.40
2023-05-23T17:48:46.914Z,4.35
2023-05-23T17:53:53.534Z,4.75
2023-05-23T17:58:57.645Z,3.53
2023-05-23T18:04:00.416Z,3.05
2023-05-23T18:09:03.516Z,3.45
2023-05-23T18:14:07.884Z,4.40
2023-05-23T18:19:10.608Z,2.70
2023-05-23T18:24:13.383Z,3.03
2023-05-23T18:29:17.467Z,4.07
2023-05-23T18:34:20.188Z,4.72
2023-05-23T18:39:22.936Z,4.72
2023-05-23T18:44:27.355Z,5.95
2023-05-23T18:49:34.235Z,6.13
2023-05-23T18:54:38.260Z,7.45
2023-05-23T18:59:47.931Z,8.68
2023-05-23T19:04:51.548Z,8.30
2023-05-23T19:09:54.255Z,12.05
2023-05-23T19:14:58.715Z,14.35
2023-05-23T19:20:01.455Z,20.48
2023-05-23T19:25:04.536Z,19.98
2023-05-23T19:30:12.647Z,19.60
2023-05-23T19:35:16.996Z,20.98
2023-05-23T19:40:21.470Z,24.98
2023-05-23T19:45:25.763Z,26.55
2023-05-23T19:50:29.033Z,23.58
2023-05-23T19:55:31.787Z,21.13
2023-05-23T20:00:36.162Z,22.08
2023-05-23T20:05:38.913Z,24.90
2023-05-23T20:10:43.211Z,25.43
2023-05-23T20:15:47.976Z,28.83
2023-05-23T20:20:50.879Z,25.50
2023-05-23T20:25:53.623Z,25.52
2023-05-23T20:30:58.274Z,22.65
2023-05-23T20:36:01.525Z,20.35
2023-05-23T20:41:07.363Z,17.07
2023-05-23T20:46:11.738Z,17.13
2023-05-23T20:51:14.495Z,24.13
2023-05-23T20:56:17.250Z,20.42
2023-05-23T21:01:22.861Z,19.42
2023-05-23T21:06:25.776Z,17.88
2023-05-23T21:11:28.471Z,19.90
2023-05-23T21:16:33.409Z,17.90
2023-05-23T21:21:37.502Z,20.98
2023-05-23T21:26:40.196Z,18.70
2023-05-23T21:31:44.309Z,19.23
2023-05-23T21:36:47.072Z,21.65
2023-05-23T21:41:49.794Z,17.92
2023-05-23T21:46:53.790Z,14.68
2023-05-23T21:51:56.556Z,15.85
2023-05-23T21:56:59.308Z,17.58
2023-05-23T22:02:03.441Z,17.02
2023-05-23T22:07:06.579Z,20.40
2023-05-23T22:12:09.679Z,15.02
2023-05-23T22:17:14.482Z,16.58
2023-05-23T22:22:17.282Z,14.68
2023-05-23T22:27:20.406Z,15.85
2023-05-23T22:32:24.613Z,15.75
2023-05-23T22:37:27.350Z,26.33
2023-05-23T22:42:30.082Z,19.80
2023-05-23T22:47:34.330Z,19.90
2023-05-23T22:52:38.526Z,22.13
2023-05-23T22:57:41.321Z,14.23
2023-05-23T23:02:45.647Z,16.58
2023-05-23T23:07:48.837Z,20.88
2023-05-23T23:12:55.680Z,15.90
2023-05-23T23:17:59.910Z,17.13
2023-05-23T23:23:02.754Z,14.52
2023-05-23T23:28:05.503Z,17.40
2023-05-23T23:33:09.617Z,11.95
2023-05-23T23:38:15.833Z,15.32
2023-05-23T23:43:18.573Z,13.38
2023-05-23T23:48:22.746Z,17.15
2023-05-23T23:53:25.594Z,22.23
2023-05-23T23:58:28.328Z,14.98
